createdAt,value
2022-10-08T00:01:16.804Z,44.52
2022-10-08T00:06:38.444Z,44.45
2022-10-08T00:12:00.144Z,44.31
2022-10-08T00:17:21.841Z,44.06
2022-10-08T00:22:43.571Z,44.11
2022-10-08T00:28:05.521Z,44.38
2022-10-08T00:33:27.753Z,44.35
2022-10-08T00:38:50.220Z,44.10
2022-10-08T00:44:54.513Z,44.40
2022-10-08T00:50:21.118Z,44.07
2022-10-08T00:55:44.081Z,44.45
2022-10-08T01:01:06.150Z,43.96
2022-10-08T01:06:41.508Z,43.96
2022-10-08T01:12:54.251Z,44.17
2022-10-08T01:18:39.803Z,44.03
2022-10-08T01:24:50.728Z,44.28
2022-10-08T01:30:16.595Z,44.28
2022-10-08T01:35:44.799Z,44.06
2022-10-08T01:41:09.490Z,44.41
2022-10-08T01:46:34.064Z,43.93
2022-10-08T01:52:01.977Z,44.06
2022-10-08T01:57:26.658Z,44.18
2022-10-08T02:02:48.655Z,44.26
2022-10-08T02:08:10.969Z,44.10
2022-10-08T02:13:33.185Z,43.98
2022-10-08T02:19:06.081Z,43.87
2022-10-08T02:24:50.507Z,43.98
2022-10-08T02:30:13.353Z,44.38
2022-10-08T02:35:42.997Z,43.94
2022-10-08T02:41:08.026Z,43.97
2022-10-08T02:46:37.794Z,44.43
2022-10-08T02:52:02.099Z,44.11
2022-10-08T02:57:31.382Z,44.24
2022-10-08T03:02:59.044Z,44.25
2022-10-08T03:08:21.812Z,44.08
2022-10-08T03:13:48.424Z,44.17
2022-10-08T03:19:12.739Z,44.40
2022-10-08T03:24:36.075Z,44.47
2022-10-08T03:29:57.711Z,44.06
2022-10-08T03:35:19.744Z,44.05
2022-10-08T03:40:42.784Z,44.29
2022-10-08T03:46:04.867Z,44.31
2022-10-08T03:51:26.733Z,44.33
2022-10-08T03:56:48.390Z,44.46
2022-10-08T04:02:10.074Z,44.39
2022-10-08T04:07:31.741Z,44.10
2022-10-08T04:12:53.401Z,44.54
2022-10-08T04:18:15.860Z,44.39
2022-10-08T04:23:39.158Z,44.37
2022-10-08T04:29:00.874Z,44.16
2022-10-08T04:34:22.504Z,44.38
2022-10-08T04:39:44.115Z,44.54
2022-10-08T04:45:06.266Z,44.26
2022-10-08T04:50:27.870Z,44.09
2022-10-08T04:55:49.526Z,44.54
2022-10-08T05:01:13.891Z,44.16
2022-10-08T05:06:35.673Z,44.13
2022-10-08T05:11:57.326Z,44.50
2022-10-08T05:17:19.061Z,44.62
2022-10-08T05:22:40.734Z,44.56
2022-10-08T05:28:03.572Z,44.28
2022-10-08T05:33:25.269Z,44.29
2022-10-08T05:38:47.189Z,44.14
2022-10-08T05:44:10.480Z,44.65
2022-10-08T05:49:32.657Z,44.11
2022-10-08T05:54:54.308Z,44.35
2022-10-08T06:00:16.129Z,44.05
2022-10-08T06:05:37.808Z,44.05
2022-10-08T06:10:59.890Z,44.15
2022-10-08T06:16:22.562Z,44.09
2022-10-08T06:21:44.271Z,43.88
2022-10-08T06:27:05.909Z,44.17
2022-10-08T06:32:27.631Z,43.61
2022-10-08T06:37:49.547Z,43.64
2022-10-08T06:43:14.180Z,43.65
2022-10-08T06:48:35.906Z,43.71
2022-10-08T06:54:04.406Z,43.45
2022-10-08T06:59:28.881Z,43.43
2022-10-08T07:04:50.525Z,43.67
2022-10-08T07:10:12.310Z,43.09
2022-10-08T07:15:33.948Z,43.24
2022-10-08T07:20:56.672Z,41.78
2022-10-08T07:26:20.958Z,39.38
2022-10-08T07:31:42.741Z,38.69
2022-10-08T07:37:04.452Z,39.03
2022-10-08T07:42:26.120Z,36.83
2022-10-08T07:47:47.802Z,37.96
2022-10-08T07:53:09.594Z,37.77
2022-10-08T07:58:31.434Z,38.02
2022-10-08T08:03:55.669Z,37.99
2022-10-08T08:09:18.437Z,36.99
2022-10-08T08:14:40.148Z,37.83
2022-10-08T08:20:01.779Z,38.67
2022-10-08T08:25:23.395Z,39.66
2022-10-08T08:30:45.017Z,40.00
2022-10-08T08:36:07.373Z,40.59
2022-10-08T08:41:47.215Z,40.82
2022-10-08T08:47:14.921Z,41.34
2022-10-08T08:52:42.452Z,41.47
2022-10-08T08:58:11.111Z,41.86
2022-10-08T09:03:39.810Z,42.04
2022-10-08T09:09:12.344Z,42.14
2022-10-08T09:14:44.636Z,42.53
2022-10-08T09:20:07.006Z,42.45
2022-10-08T09:25:33.107Z,42.84
2022-10-08T09:31:00.088Z,42.61
2022-10-08T09:36:31.554Z,42.99
2022-10-08T09:42:08.258Z,42.69
2022-10-08T09:47:31.086Z,43.15
2022-10-08T09:52:56.060Z,43.28
2022-10-08T09:58:19.839Z,43.11
2022-10-08T10:03:54.084Z,43.08
2022-10-08T10:09:33.916Z,43.10
2022-10-08T10:15:02.100Z,42.91
2022-10-08T10:20:33.444Z,43.01
2022-10-08T10:26:09.114Z,43.18
2022-10-08T10:31:38.871Z,43.10
2022-10-08T10:37:12.444Z,42.80
2022-10-08T10:42:39.845Z,43.24
2022-10-08T10:48:02.607Z,43.05
2022-10-08T10:53:43.181Z,42.50
2022-10-08T10:59:36.180Z,42.28
2022-10-08T11:05:27.288Z,41.38
2022-10-08T11:11:06.970Z,40.73
2022-10-08T11:16:47.842Z,40.24
2022-10-08T11:22:24.968Z,39.63
2022-10-08T11:27:58.570Z,39.01
2022-10-08T11:33:20.940Z,38.77
2022-10-08T11:38:51.691Z,38.34
2022-10-08T11:44:14.022Z,38.05
2022-10-08T11:49:38.452Z,37.96
2022-10-08T11:55:04.826Z,37.17
2022-10-08T12:00:42.140Z,37.02
2022-10-08T12:06:26.783Z,36.81
2022-10-08T12:11:51.078Z,37.21
2022-10-08T12:17:13.113Z,36.71
2022-10-08T12:22:34.662Z,36.95
2022-10-08T12:28:19.259Z,37.41
2022-10-08T12:33:41.816Z,38.55
2022-10-08T12:39:42.775Z,39.17
2022-10-08T12:45:34.797Z,39.44
2022-10-08T12:51:44.160Z,38.57
2022-10-08T12:57:11.885Z,39.11
2022-10-08T13:02:42.866Z,38.62
2022-10-08T13:08:37.331Z,38.45
2022-10-08T13:13:59.786Z,38.04
2022-10-08T13:19:37.929Z,38.03
2022-10-08T13:24:59.592Z,38.55
2022-10-08T13:30:28.243Z,38.51
2022-10-08T13:35:56.765Z,38.27
2022-10-08T13:41:24.087Z,38.58
2022-10-08T13:46:46.045Z,38.32
2022-10-08T13:52:15.841Z,39.20
2022-10-08T13:57:37.509Z,38.83
2022-10-08T14:03:00.209Z,38.69
2022-10-08T14:08:28.458Z,38.91
2022-10-08T14:13:50.211Z,39.39
2022-10-08T14:19:12.402Z,39.53
2022-10-08T14:24:34.098Z,39.21
2022-10-08T14:29:55.742Z,39.67
2022-10-08T14:35:17.830Z,39.06
2022-10-08T14:40:39.496Z,39.50
2022-10-08T14:46:01.382Z,39.59
2022-10-08T14:51:23.260Z,39.56
2022-10-08T14:56:46.153Z,39.99
2022-10-08T15:02:10.754Z,39.91
2022-10-08T15:07:32.478Z,39.63
2022-10-08T15:12:54.201Z,39.87
2022-10-08T15:18:16.020Z,40.12
2022-10-08T15:23:37.660Z,40.13
2022-10-08T15:28:59.318Z,39.86
2022-10-08T15:34:21.146Z,39.74
2022-10-08T15:39:42.959Z,39.85
2022-10-08T15:45:05.087Z,39.87
2022-10-08T15:50:26.704Z,40.32
2022-10-08T15:55:58.007Z,40.03
2022-10-08T16:01:22.858Z,39.96
2022-10-08T16:06:47.690Z,40.11
2022-10-08T16:12:09.482Z,40.33
2022-10-08T16:17:31.330Z,40.22
2022-10-08T16:22:53.019Z,40.03
2022-10-08T16:28:14.754Z,40.01
2022-10-08T16:33:36.407Z,40.38
2022-10-08T16:38:58.149Z,40.46
2022-10-08T16:44:21.287Z,40.35
2022-10-08T16:49:43.886Z,39.99
2022-10-08T16:55:06.204Z,40.38
2022-10-08T17:00:27.960Z,40.35
2022-10-08T17:05:49.588Z,40.57
2022-10-08T17:11:12.922Z,40.67
2022-10-08T17:16:35.834Z,40.84
2022-10-08T17:21:57.554Z,41.05
2022-10-08T17:27:19.183Z,41.08
2022-10-08T17:32:40.853Z,40.98
2022-10-08T17:38:02.505Z,41.26
2022-10-08T17:43:24.304Z,41.00
2022-10-08T17:48:46.747Z,41.05
2022-10-08T17:54:12.477Z,41.37
2022-10-08T17:59:34.094Z,41.45
2022-10-08T18:04:55.761Z,41.84
2022-10-08T18:10:17.497Z,41.63
2022-10-08T18:15:39.156Z,42.18
2022-10-08T18:21:02.110Z,42.07
2022-10-08T18:26:25.285Z,42.35
2022-10-08T18:31:46.996Z,42.33
2022-10-08T18:37:08.658Z,42.35
2022-10-08T18:42:30.333Z,42.20
2022-10-08T18:47:51.988Z,41.84
2022-10-08T18:53:13.617Z,42.08
2022-10-08T18:58:35.615Z,41.88
2022-10-08T19:04:00.174Z,42.37
2022-10-08T19:09:22.438Z,42.13
2022-10-08T19:14:44.222Z,42.48
2022-10-08T19:20:06.288Z,42.14
2022-10-08T19:25:30.182Z,42.67
2022-10-08T19:30:51.882Z,42.57
2022-10-08T19:36:15.301Z,42.39
2022-10-08T19:41:38.378Z,42.49
2022-10-08T19:47:00.036Z,42.32
2022-10-08T19:52:21.724Z,42.35
2022-10-08T19:57:43.369Z,42.79
2022-10-08T20:03:05.183Z,42.92
2022-10-08T20:08:26.849Z,42.80
2022-10-08T20:13:50.136Z,43.18
2022-10-08T20:19:17.746Z,43.00
2022-10-08T20:24:39.382Z,42.99
2022-10-08T20:30:01.120Z,42.68
2022-10-08T20:35:23.142Z,42.90
2022-10-08T20:40:44.800Z,42.48
2022-10-08T20:46:09.181Z,42.58
2022-10-08T20:51:32.078Z,42.65
2022-10-08T20:56:53.775Z,42.90
2022-10-08T21:02:19.587Z,42.83
2022-10-08T21:07:41.599Z,42.93
2022-10-08T21:13:04.141Z,42.51
2022-10-08T21:18:25.952Z,42.55
2022-10-08T21:23:49.255Z,42.41
2022-10-08T21:29:13.094Z,42.38
2022-10-08T21:34:34.706Z,42.64
2022-10-08T21:39:56.456Z,42.50
2022-10-08T21:45:18.212Z,42.33
2022-10-08T21:50:40.036Z,42.48
2022-10-08T21:56:11.237Z,42.48
2022-10-08T22:01:36.707Z,42.82
2022-10-08T22:06:58.547Z,42.68
2022-10-08T22:12:20.326Z,42.66
2022-10-08T22:17:41.950Z,42.63
2022-10-08T22:23:03.624Z,42.89
2022-10-08T22:28:26.089Z,42.56
2022-10-08T22:33:48.590Z,43.00
2022-10-08T22:39:10.466Z,42.91
2022-10-08T22:44:33.424Z,42.96
2022-10-08T22:49:55.082Z,42.59
2022-10-08T22:55:17.508Z,42.83
2022-10-08T23:00:39.156Z,42.56
2022-10-08T23:06:03.079Z,42.90
2022-10-08T23:11:25.786Z,42.81
2022-10-08T23:16:49.132Z,42.73
2022-10-08T23:22:10.804Z,42.97
2022-10-08T23:27:32.423Z,42.91
2022-10-08T23:32:54.040Z,42.77
2022-10-08T23:38:15.693Z,42.51
2022-10-08T23:43:39.937Z,42.73
2022-10-08T23:49:01.962Z,42.54
2022-10-08T23:54:23.644Z,42.87
2022-10-08T23:59:45.252Z,42.94
